| time (UTC) | temp C | wind direction | speed KPH | gust KPH | rain 1hr cm | rain 24hr cm | rain mn cm | humidity % | barometer mb |
| 20260505102019 | 10 | 0.0 | 0.0 | 0.00 | 0.00 | 0.00 | 88 | 1021.2 | |
| 20260505101017 | 10 | 0.0 | 0.0 | 0.00 | 0.00 | 0.00 | 88 | 1021.2 | |
| 20260505100055 | 10 | 0.0 | 1.6 | 0.00 | 0.00 | 0.00 | 87 | 1021.3 | |
| 20260505095032 | 11 | 161 | 0.0 | 3.2 | 0.00 | 0.00 | 0.00 | 86 | 1021.2 |
| 20260505094030 | 10 | 0.0 | 1.6 | 0.00 | 0.00 | 0.00 | 86 | 1021.1 | |
| 20260505093028 | 10 | 147 | 0.0 | 3.2 | 0.00 | 0.00 | 0.00 | 87 | 1021.0 |
| 20260505092025 | 10 | 141 | 1.6 | 3.2 | 0.00 | 0.00 | 0.00 | 88 | 1021.2 |
| 20260505091023 | 10 | 76 | 0.0 | 1.6 | 0.00 | 0.00 | 0.00 | 86 | 1021.3 |
| 20260505090020 | 11 | 350 | 0.0 | 1.6 | 0.00 | 0.00 | 0.00 | 85 | 1021.1 |
| 20260505085018 | 11 | 138 | 0.0 | 1.6 | 0.00 | 0.00 | 0.00 | 84 | 1021.0 |
| 20260505084035 | 11 | 74 | 0.0 | 1.6 | 0.00 | 0.00 | 0.00 | 83 | 1020.8 |
| 20260505083033 | 12 | 73 | 0.0 | 3.2 | 0.00 | 0.00 | 0.00 | 81 | 1020.9 |
| 20260505082051 | 12 | 167 | 1.6 | 4.8 | 0.00 | 0.00 | 0.00 | 81 | 1020.8 |
| 20260505081028 | 12 | 269 | 0.0 | 3.2 | 0.00 | 0.00 | 0.00 | 81 | 1020.6 |
| 20260505080046 | 12 | 184 | 0.0 | 4.8 | 0.00 | 0.00 | 0.00 | 79 | 1020.5 |
| 20260505075023 | 12 | 164 | 3.2 | 6.4 | 0.00 | 0.00 | 0.00 | 78 | 1020.4 |
| 20260505074042 | 13 | 165 | 3.2 | 6.4 | 0.00 | 0.00 | 0.00 | 78 | 1020.2 |
| 20260505073019 | 13 | 174 | 1.6 | 3.2 | 0.00 | 0.00 | 0.00 | 77 | 1020.1 |
| 20260505072017 | 13 | 167 | 4.8 | 8.0 | 0.00 | 0.00 | 0.00 | 75 | 1020.0 |
| 20260505071034 | 14 | 160 | 4.8 | 9.7 | 0.00 | 0.00 | 0.00 | 74 | 1020.1 |
| 20260505070032 | 14 | 156 | 3.2 | 8.0 | 0.00 | 0.00 | 0.00 | 73 | 1020.0 |
| 20260505065110 | 14 | 158 | 6.4 | 12.9 | 0.00 | 0.00 | 0.00 | 72 | 1020.0 |
| 20260505064047 | 15 | 156 | 8.0 | 16.1 | 0.00 | 0.00 | 0.00 | 72 | 1020.0 |
| 20260505063024 | 15 | 145 | 4.8 | 11.3 | 0.00 | 0.00 | 0.00 | 71 | 1019.9 |
| 20260505062022 | 15 | 165 | 4.8 | 16.1 | 0.00 | 0.00 | 0.00 | 70 | 1019.7 |
| 20260505061040 | 15 | 166 | 6.4 | 14.5 | 0.00 | 0.00 | 0.00 | 67 | 1019.6 |
| 20260505060017 | 15 | 170 | 8.0 | 16.1 | 0.00 | 0.00 | 0.00 | 67 | 1019.7 |
| 20260505055035 | 15 | 176 | 8.0 | 16.1 | 0.00 | 0.00 | 0.00 | 68 | 1019.6 |
| 20260505054053 | 15 | 166 | 8.0 | 17.7 | 0.00 | 0.00 | 0.00 | 70 | 1019.5 |
| 20260505053030 | 16 | 176 | 9.7 | 16.1 | 0.00 | 0.00 | 0.00 | 66 | 1019.3 |
| 20260505052028 | 17 | 185 | 6.4 | 16.1 | 0.00 | 0.00 | 0.00 | 62 | 1019.2 |
| 20260505051025 | 17 | 223 | 8.0 | 16.1 | 0.00 | 0.00 | 0.00 | 61 | 1019.2 |
| 20260505041031 | 17 | 219 | 4.8 | 8.0 | 0.00 | 0.00 | 0.00 | 63 | 1018.9 |
| 20260505040029 | 17 | 176 | 8.0 | 16.1 | 0.00 | 0.00 | 0.00 | 63 | 1018.9 |
| 20260505035026 | 17 | 228 | 4.8 | 12.9 | 0.00 | 0.00 | 0.00 | 63 | 1018.8 |
| 20260505034024 | 17 | 210 | 4.8 | 12.9 | 0.00 | 0.00 | 0.00 | 63 | 1018.8 |
| 20260505033021 | 17 | 162 | 4.8 | 11.3 | 0.00 | 0.00 | 0.00 | 66 | 1019.0 |
| 20260505032019 | 16 | 177 | 4.8 | 9.7 | 0.00 | 0.00 | 0.00 | 68 | 1019.3 |
| 20260505031017 | 17 | 210 | 6.4 | 12.9 | 0.00 | 0.00 | 0.00 | 65 | 1019.3 |
| 20260505030034 | 17 | 254 | 8.0 | 14.5 | 0.00 | 0.00 | 0.00 | 64 | 1019.2 |
| 20260505025032 | 17 | 257 | 8.0 | 12.9 | 0.00 | 0.00 | 0.00 | 64 | 1019.3 |
| 20260505024029 | 17 | 224 | 6.4 | 14.5 | 0.00 | 0.00 | 0.00 | 65 | 1019.4 |
| 20260505023027 | 16 | 243 | 8.0 | 16.1 | 0.00 | 0.00 | 0.00 | 64 | 1019.6 |
| 20260505022025 | 17 | 229 | 8.0 | 14.5 | 0.00 | 0.00 | 0.00 | 63 | 1019.7 |
| 20260505021022 | 17 | 260 | 4.8 | 12.9 | 0.00 | 0.00 | 0.00 | 65 | 1019.6 |
| 20260505020020 | 16 | 229 | 4.8 | 12.9 | 0.00 | 0.00 | 0.00 | 65 | 1019.6 |
| 20260505015038 | 16 | 247 | 4.8 | 11.3 | 0.00 | 0.00 | 0.00 | 66 | 1019.7 |
| 20260505014035 | 16 | 253 | 4.8 | 11.3 | 0.00 | 0.00 | 0.00 | 67 | 1019.8 |
| 20260505013033 | 16 | 250 | 6.4 | 9.7 | 0.00 | 0.00 | 0.00 | 69 | 1019.7 |
| 20260505012031 | 16 | 226 | 4.8 | 16.1 | 0.00 | 0.00 | 0.00 | 69 | 1019.8 |
| 20260505011028 | 15 | 200 | 4.8 | 9.7 | 0.00 | 0.00 | 0.00 | 73 | 1019.9 |
| 20260505010026 | 16 | 218 | 3.2 | 9.7 | 0.00 | 0.00 | 0.00 | 73 | 1019.8 |
| 20260505005023 | 15 | 236 | 6.4 | 12.9 | 0.00 | 0.00 | 0.00 | 74 | 1019.9 |
| 20260505004021 | 15 | 203 | 6.4 | 14.5 | 0.00 | 0.00 | 0.00 | 76 | 1019.8 |
| 20260505003019 | 15 | 240 | 6.4 | 17.7 | 0.00 | 0.00 | 0.00 | 77 | 1019.8 |
| 20260505002016 | 14 | 253 | 6.4 | 11.3 | 0.00 | 0.00 | 0.00 | 80 | 1019.8 |
| 20260505001034 | 14 | 228 | 4.8 | 11.3 | 0.00 | 0.00 | 0.00 | 79 | 1019.7 |
| 20260505000031 | 14 | 229 | 4.8 | 14.5 | 0.00 | 0.00 | 0.00 | 79 | 1019.7 |
| 20260504235029 | 14 | 215 | 4.8 | 9.7 | 0.00 | 0.00 | 0.00 | 80 | 1019.6 |
| 20260504234027 | 13 | 236 | 4.8 | 9.7 | 0.00 | 0.00 | 0.00 | 83 | 1019.6 |
| 20260504233044 | 13 | 239 | 6.4 | 12.9 | 0.00 | 0.00 | 0.00 | 85 | 1019.6 |
| 20260504232022 | 13 | 225 | 6.4 | 14.5 | 0.00 | 0.00 | 0.00 | 84 | 1019.7 |
| 20260504231019 | 13 | 248 | 4.8 | 12.9 | 0.00 | 0.00 | 0.00 | 85 | 1019.6 |
| 20260504230037 | 13 | 237 | 4.8 | 11.3 | 0.00 | 0.00 | 0.00 | 86 | 1019.7 |
| 20260504225055 | 12 | 260 | 4.8 | 9.7 | 0.00 | 0.00 | 0.00 | 88 | 1019.5 |
| 20260504224032 | 12 | 243 | 4.8 | 9.7 | 0.00 | 0.00 | 0.00 | 89 | 1019.6 |
| 20260504223030 | 11 | 237 | 4.8 | 8.0 | 0.00 | 0.03 | 0.00 | 91 | 1019.4 |
| 20260504222027 | 11 | 261 | 4.8 | 6.4 | 0.00 | 0.03 | 0.00 | 93 | 1019.3 |
| 20260504221025 | 11 | 256 | 4.8 | 9.7 | 0.00 | 0.03 | 0.00 | 95 | 1019.2 |
| 20260504220023 | 10 | 278 | 4.8 | 9.7 | 0.00 | 0.03 | 0.00 | 95 | 1019.1 |
| 20260504215020 | 10 | 268 | 3.2 | 6.4 | 0.00 | 0.03 | 0.00 | 96 | 1018.9 |
| 20260504214018 | 10 | 309 | 1.6 | 3.2 | 0.00 | 0.03 | 0.00 | 96 | 1018.6 |
| 20260504213056 | 9 | 254 | 1.6 | 4.8 | 0.00 | 0.03 | 0.00 | 95 | 1018.5 |
| 20260504212033 | 9 | 263 | 1.6 | 4.8 | 0.00 | 0.03 | 0.00 | 95 | 1018.5 |
| 20260504211051 | 9 | 261 | 1.6 | 4.8 | 0.00 | 0.03 | 0.00 | 95 | 1018.3 |
| 20260504210029 | 9 | 306 | 1.6 | 3.2 | 0.00 | 0.03 | 0.00 | 95 | 1018.2 |
| 20260504205026 | 9 | 292 | 1.6 | 4.8 | 0.00 | 0.03 | 0.00 | 94 | 1018.1 |
| 20260504204023 | 9 | 287 | 1.6 | 3.2 | 0.00 | 0.03 | 0.00 | 94 | 1018.0 |
| 20260504203041 | 9 | 341 | 1.6 | 3.2 | 0.00 | 0.03 | 0.00 | 94 | 1017.9 |
| 20260504202019 | 9 | 289 | 1.6 | 3.2 | 0.00 | 0.03 | 0.00 | 94 | 1017.8 |
| 20260504201057 | 9 | 186 | 1.6 | 3.2 | 0.00 | 0.03 | 0.00 | 93 | 1017.5 |
| 20260504200034 | 10 | 229 | 1.6 | 4.8 | 0.00 | 0.03 | 0.00 | 93 | 1017.5 |
| 20260504195031 | 10 | 223 | 3.2 | 8.0 | 0.00 | 0.03 | 0.00 | 93 | 1017.5 |
| 20260504194029 | 10 | 230 | 3.2 | 6.4 | 0.00 | 0.03 | 0.00 | 92 | 1017.3 |
| 20260504193027 | 10 | 229 | 1.6 | 4.8 | 0.00 | 0.03 | 0.00 | 92 | 1017.3 |
| 20260504192024 | 10 | 234 | 4.8 | 12.9 | 0.00 | 0.03 | 0.00 | 92 | 1017.2 |
| 20260504191022 | 10 | 228 | 3.2 | 8.0 | 0.00 | 0.03 | 0.00 | 91 | 1017.2 |
| 20260504190019 | 10 | 243 | 3.2 | 9.7 | 0.00 | 0.03 | 0.00 | 91 | 1017.0 |
| 20260504185017 | 10 | 221 | 4.8 | 9.7 | 0.00 | 0.03 | 0.00 | 90 | 1017.0 |
| 20260504184035 | 10 | 247 | 6.4 | 11.3 | 0.00 | 0.03 | 0.00 | 90 | 1016.8 |
| 20260504183033 | 11 | 247 | 6.4 | 14.5 | 0.00 | 0.03 | 0.00 | 89 | 1016.7 |
| 20260504182030 | 11 | 246 | 6.4 | 12.9 | 0.00 | 0.03 | 0.00 | 89 | 1016.6 |
| 20260504181027 | 11 | 239 | 8.0 | 17.7 | 0.00 | 0.03 | 0.00 | 89 | 1016.5 |
| 20260504180045 | 11 | 241 | 6.4 | 11.3 | 0.00 | 0.03 | 0.00 | 88 | 1016.5 |
| 20260504175043 | 11 | 243 | 6.4 | 11.3 | 0.00 | 0.03 | 0.00 | 88 | 1016.3 |
| 20260504174020 | 11 | 244 | 6.4 | 14.5 | 0.00 | 0.03 | 0.00 | 87 | 1016.3 |
| 20260504173018 | 11 | 247 | 4.8 | 12.9 | 0.00 | 0.03 | 0.00 | 86 | 1016.2 |
| 20260504172036 | 11 | 244 | 6.4 | 16.1 | 0.00 | 0.05 | 0.00 | 86 | 1016.3 |
| 20260504171033 | 11 | 240 | 6.4 | 16.1 | 0.00 | 0.08 | 0.00 | 85 | 1016.3 |
| 20260504151024 | 11 | 287 | 3.2 | 9.7 | 0.00 | 0.25 | 0.00 | 81 | 1016.1 |
| 20260504141030 | 11 | 298 | 1.6 | 3.2 | 0.00 | 0.25 | 0.00 | 81 | 1016.1 |
| 20260504130114 | 12 | 304 | 1.6 | 4.8 | 0.00 | 0.30 | 0.25 | 79 | 1016.0 |